Time;durP1;ratioP1;P1;durP2;ratioP2;P2;SDS_P1;SDS_P2;PMS_P1;PMS_P2;Temp;Humidity;BMP_temperature;BMP_pressure;BME280_temperature;BME280_humidity;BME280_pressure;Samples;Min_cycle;Max_cycle;Signal;HPM_P1;HPM_P2
2022/08/06 00:01:34;;;;;;;4.45;3.08;;;15.20;99.90;;;;;;5052546;28;20170;-67
2022/08/06 00:04:00;;;;;;;6.03;3.08;;;15.10;99.90;;;;;;5052698;28;20644;-68
2022/08/06 00:06:26;;;;;;;8.50;3.30;;;15.10;99.90;;;;;;5051339;28;20264;-68
2022/08/06 00:08:52;;;;;;;6.60;3.00;;;15.10;99.90;;;;;;5052348;28;20264;-67
2022/08/06 00:11:18;;;;;;;7.20;3.25;;;15.00;99.90;;;;;;5052426;28;20272;-69
2022/08/06 00:13:44;;;;;;;5.57;3.40;;;15.00;99.90;;;;;;5052368;28;20636;-68
2022/08/06 00:16:09;;;;;;;8.80;3.28;;;15.00;99.90;;;;;;5052406;28;20263;-68
2022/08/06 00:18:35;;;;;;;6.43;3.45;;;15.00;99.90;;;;;;5052377;28;20644;-68
2022/08/06 00:21:01;;;;;;;9.13;4.10;;;15.00;99.90;;;;;;5052238;28;20173;-69
2022/08/06 00:23:27;;;;;;;5.95;3.75;;;14.90;99.90;;;;;;5052128;28;20161;-68
2022/08/06 00:25:53;;;;;;;9.80;3.95;;;14.90;99.90;;;;;;5051420;28;20643;-68
2022/08/06 00:28:24;;;;;;;6.22;3.25;;;14.80;99.90;;;;;;5052347;28;20169;-68
2022/08/06 00:30:50;;;;;;;5.68;3.80;;;14.80;99.90;;;;;;5052026;28;20213;-69
2022/08/06 00:33:15;;;;;;;8.55;3.80;;;14.70;99.90;;;;;;5052099;28;20219;-68
2022/08/06 00:35:43;;;;;;;6.68;3.88;;;14.70;99.90;;;;;;5050745;28;20226;-68
2022/08/06 00:38:08;;;;;;;8.80;3.88;;;14.70;99.90;;;;;;5051672;28;20311;-69
2022/08/06 00:40:35;;;;;;;5.80;3.63;;;14.70;99.90;;;;;;5052154;28;20671;-67
2022/08/06 00:43:02;;;;;;;8.32;3.67;;;14.70;99.90;;;;;;5050391;28;20555;-67
2022/08/06 00:45:32;;;;;;;7.47;3.95;;;14.60;99.90;;;;;;5051858;28;20222;-67
2022/08/06 00:47:59;;;;;;;6.90;4.45;;;14.50;99.90;;;;;;5051923;28;20187;-68
2022/08/06 00:50:25;;;;;;;6.07;4.03;;;14.50;99.90;;;;;;5051620;28;20220;-67
2022/08/06 00:52:52;;;;;;;5.18;3.42;;;14.50;99.90;;;;;;5051775;28;20161;-67
2022/08/06 00:55:17;;;;;;;8.82;4.28;;;14.50;99.90;;;;;;5051585;28;20636;-67
2022/08/06 00:57:43;;;;;;;6.50;3.80;;;14.50;99.90;;;;;;5051617;28;20177;-67
2022/08/06 01:00:09;;;;;;;7.40;4.50;;;14.50;99.90;;;;;;5051515;28;20203;-67
2022/08/06 01:02:35;;;;;;;8.57;4.30;;;14.50;99.90;;;;;;5051526;28;20176;-67
2022/08/06 01:05:01;;;;;;;9.90;4.20;;;14.50;99.90;;;;;;5051456;28;20169;-67
2022/08/06 01:07:27;;;;;;;7.68;3.95;;;14.50;99.90;;;;;;5051394;28;20214;-67
2022/08/06 01:09:53;;;;;;;11.05;4.25;;;14.40;99.90;;;;;;5051688;28;20213;-69
2022/08/06 01:12:18;;;;;;;7.20;4.07;;;14.30;99.90;;;;;;5051303;28;20223;-68
2022/08/06 01:14:44;;;;;;;5.45;3.90;;;14.30;99.90;;;;;;5051276;28;20179;-68
2022/08/06 01:17:42;;;;;;;8.73;4.25;;;14.30;99.90;;;;;;5051367;28;20601;-69
2022/08/06 01:20:20;;;;;;;5.85;4.07;;;14.30;99.90;;;;;;5051332;28;20223;-67
2022/08/06 01:22:51;;;;;;;5.82;4.32;;;14.30;99.90;;;;;;5051056;28;20264;-68
2022/08/06 01:25:29;;;;;;;6.93;4.32;;;14.20;99.90;;;;;;5051242;28;20181;-68
2022/08/06 01:28:12;;;;;;;8.63;4.60;;;14.20;99.90;;;;;;5051162;28;20161;-66
2022/08/06 01:30:46;;;;;;;7.70;3.85;;;14.20;99.90;;;;;;5050990;28;20574;-67
2022/08/06 01:33:25;;;;;;;7.65;4.20;;;14.20;99.90;;;;;;5051017;28;20195;-68
2022/08/06 01:35:55;;;;;;;8.40;3.95;;;14.20;99.90;;;;;;5051152;28;20267;-67
2022/08/06 01:38:31;;;;;;;6.90;3.90;;;14.20;99.90;;;;;;5050546;28;20221;-67
2022/08/06 01:41:01;;;;;;;7.63;4.38;;;14.20;99.90;;;;;;5049914;28;20183;-68
2022/08/06 01:43:28;;;;;;;6.93;4.28;;;14.10;99.90;;;;;;5050988;28;20173;-67
2022/08/06 01:45:57;;;;;;;7.05;4.53;;;14.10;99.90;;;;;;5051022;28;20598;-68
2022/08/06 01:48:25;;;;;;;7.28;4.07;;;14.20;99.90;;;;;;5050914;28;20678;-67
2022/08/06 01:50:55;;;;;;;7.22;4.50;;;14.10;99.90;;;;;;5050875;28;20204;-68
2022/08/06 01:53:33;;;;;;;10.45;4.45;;;13.90;99.90;;;;;;5051005;28;20540;-68
2022/08/06 01:56:01;;;;;;;9.77;4.82;;;13.90;99.90;;;;;;5051018;28;20173;-68
2022/08/06 01:58:31;;;;;;;6.65;4.75;;;13.90;99.90;;;;;;5050860;28;20161;-68
2022/08/06 02:01:04;;;;;;;9.00;4.85;;;14.20;99.90;;;;;;5050818;28;20177;-68
2022/08/06 02:03:43;;;;;;;8.07;4.57;;;13.80;99.90;;;;;;5050799;28;20652;-68
2022/08/06 02:06:15;;;;;;;7.88;4.63;;;13.70;99.90;;;;;;5050937;28;20179;-66
2022/08/06 02:08:43;;;;;;;7.38;4.72;;;13.70;99.90;;;;;;5050802;28;20252;-67
2022/08/06 02:11:10;;;;;;;9.70;5.18;;;13.60;99.90;;;;;;5050856;28;20213;-67
2022/08/06 02:13:38;;;;;;;8.25;4.65;;;13.60;99.90;;;;;;5050698;28;20205;-67
2022/08/06 02:16:07;;;;;;;8.15;4.70;;;13.60;99.90;;;;;;5050703;28;20201;-68
2022/08/06 02:18:37;;;;;;;10.02;4.78;;;13.50;99.90;;;;;;5050675;28;20176;-68
2022/08/06 02:21:08;;;;;;;9.20;4.97;;;13.50;99.90;;;;;;5050793;28;20177;-67
2022/08/06 02:23:35;;;;;;;9.93;5.15;;;13.50;99.90;;;;;;5050585;28;20559;-68
2022/08/06 02:26:02;;;;;;;7.55;5.03;;;13.50;99.90;;;;;;5050414;28;20535;-67
2022/08/06 02:28:29;;;;;;;8.73;5.45;;;13.50;99.90;;;;;;5050554;28;20173;-68
2022/08/06 02:30:57;;;;;;;9.27;5.75;;;13.50;99.90;;;;;;5050326;28;20224;-68
2022/08/06 02:33:23;;;;;;;10.00;5.53;;;13.40;99.90;;;;;;5050423;28;20660;-67
2022/08/06 02:35:52;;;;;;;9.23;5.65;;;13.50;99.90;;;;;;5050398;28;20177;-68
2022/08/06 02:38:35;;;;;;;12.63;5.68;;;13.50;99.90;;;;;;5050190;28;20696;-67
2022/08/06 02:41:13;;;;;;;10.00;5.82;;;13.50;99.90;;;;;;5050297;28;20172;-68
2022/08/06 02:43:46;;;;;;;9.50;5.95;;;13.50;99.90;;;;;;5050397;28;20172;-68
2022/08/06 02:46:23;;;;;;;12.18;5.55;;;13.40;99.90;;;;;;5050406;28;20273;-68
2022/08/06 02:49:16;;;;;;;8.60;5.40;;;13.40;99.90;;;;;;5050940;28;20169;-67
2022/08/06 02:51:50;;;;;;;13.40;5.93;;;13.30;99.90;;;;;;5053847;28;20239;-68
2022/08/06 02:54:21;;;;;;;7.93;5.47;;;13.20;99.90;;;;;;5054062;28;20205;-67
2022/08/06 02:56:51;;;;;;;8.02;5.63;;;13.30;99.90;;;;;;5053721;28;20169;-67
2022/08/06 02:59:24;;;;;;;10.18;6.28;;;13.20;99.90;;;;;;5053697;28;20666;-68
2022/08/06 03:01:54;;;;;;;8.15;5.80;;;13.20;99.90;;;;;;5053724;28;20173;-67
2022/08/06 03:04:23;;;;;;;10.25;5.80;;;13.20;99.90;;;;;;5053596;28;20174;-67
2022/08/06 03:06:50;;;;;;;9.90;5.75;;;13.20;99.90;;;;;;5053722;28;20173;-67
2022/08/06 03:09:18;;;;;;;10.02;5.57;;;13.10;99.90;;;;;;5053838;28;20208;-67
2022/08/06 03:11:46;;;;;;;12.20;6.22;;;13.10;99.90;;;;;;5053519;28;20632;-66
2022/08/06 03:14:14;;;;;;;9.45;5.55;;;13.10;99.90;;;;;;5053405;28;20177;-66
2022/08/06 03:16:41;;;;;;;11.70;5.70;;;13.00;99.90;;;;;;5053233;28;20181;-68
2022/08/06 03:19:09;;;;;;;8.32;5.93;;;13.00;99.90;;;;;;5053279;28;20249;-67
2022/08/06 03:21:36;;;;;;;8.97;6.20;;;13.00;99.90;;;;;;5053606;28;20223;-67
2022/08/06 03:24:03;;;;;;;10.73;6.43;;;12.90;99.90;;;;;;5053251;28;20173;-67
2022/08/06 03:26:30;;;;;;;9.77;6.13;;;12.90;99.90;;;;;;5053257;28;20177;-68
2022/08/06 03:28:58;;;;;;;10.00;5.63;;;12.70;99.90;;;;;;5053007;28;20169;-67
2022/08/06 03:31:25;;;;;;;11.83;6.20;;;12.60;99.90;;;;;;5053213;28;20238;-69
2022/08/06 03:33:51;;;;;;;10.00;6.40;;;12.50;99.90;;;;;;5053498;28;20178;-68
2022/08/06 03:36:19;;;;;;;12.13;6.57;;;12.40;99.90;;;;;;5053099;28;20181;-68
2022/08/06 03:39:02;;;;;;;11.02;6.55;;;12.40;99.90;;;;;;5052914;28;20216;-68
2022/08/06 03:41:32;;;;;;;12.70;6.80;;;12.50;99.90;;;;;;5052909;28;20180;-68
2022/08/06 03:43:58;;;;;;;9.07;6.63;;;12.40;99.90;;;;;;5052949;28;20230;-68
2022/08/06 03:46:51;;;;;;;9.97;6.53;;;12.40;99.90;;;;;;5053022;28;20192;-68
2022/08/06 03:49:30;;;;;;;8.77;6.07;;;12.40;99.90;;;;;;5041262;28;20292;-67
2022/08/06 03:52:00;;;;;;;8.60;5.97;;;12.40;99.90;;;;;;5052728;28;20184;-68
2022/08/06 03:54:28;;;;;;;7.97;5.80;;;12.20;99.90;;;;;;5052706;28;20177;-67
2022/08/06 03:57:01;;;;;;;11.23;6.77;;;12.10;99.90;;;;;;5052849;28;20177;-67
2022/08/06 03:59:29;;;;;;;8.87;6.37;;;12.00;99.90;;;;;;5052400;28;20169;-68
2022/08/06 04:01:57;;;;;;;9.17;6.50;;;12.00;99.90;;;;;;5052635;28;20165;-68
2022/08/06 04:04:25;;;;;;;13.00;6.80;;;11.90;99.90;;;;;;5052564;28;20181;-68
2022/08/06 04:06:53;;;;;;;12.07;6.97;;;12.00;99.90;;;;;;5052610;28;20240;-67
2022/08/06 04:09:19;;;;;;;11.27;6.47;;;12.00;99.90;;;;;;5052539;28;20274;-68
2022/08/06 04:11:46;;;;;;;10.10;6.50;;;12.00;99.90;;;;;;5052338;28;20482;-69
2022/08/06 04:14:13;;;;;;;8.97;6.77;;;12.10;99.90;;;;;;5052368;28;20178;-68
2022/08/06 04:16:40;;;;;;;18.83;7.40;;;12.10;99.90;;;;;;5052230;28;20169;-68
2022/08/06 04:19:08;;;;;;;12.13;7.03;;;12.10;99.90;;;;;;5052265;28;20173;-68
2022/08/06 04:21:34;;;;;;;14.03;7.30;;;12.10;99.90;;;;;;5052258;28;20175;-68
2022/08/06 04:24:00;;;;;;;11.37;7.30;;;12.10;99.90;;;;;;5050832;28;20169;-68
2022/08/06 04:26:28;;;;;;;11.57;6.77;;;12.00;99.90;;;;;;5052122;28;20185;-68
2022/08/06 04:28:56;;;;;;;11.00;7.20;;;12.00;99.90;;;;;;5052150;28;20220;-68
2022/08/06 04:31:23;;;;;;;8.43;6.67;;;12.00;99.90;;;;;;5052020;28;20181;-68
2022/08/06 04:33:51;;;;;;;9.80;6.90;;;11.90;99.90;;;;;;5051994;28;20256;-68
2022/08/06 04:36:17;;;;;;;9.30;7.00;;;11.70;99.90;;;;;;5052008;28;20169;-69
2022/08/06 04:38:45;;;;;;;11.20;7.00;;;11.50;99.90;;;;;;5051748;28;20221;-68
2022/08/06 04:41:12;;;;;;;11.77;7.50;;;11.50;99.90;;;;;;5051921;28;20648;-69
2022/08/06 04:43:37;;;;;;;12.40;7.30;;;11.40;99.90;;;;;;5052001;28;20172;-69
2022/08/06 04:46:04;;;;;;;12.13;7.90;;;11.40;99.90;;;;;;5051842;28;20567;-69
2022/08/06 04:48:30;;;;;;;13.97;7.90;;;11.40;99.90;;;;;;5051689;28;20173;-69
2022/08/06 04:50:56;;;;;;;13.67;7.40;;;11.30;99.90;;;;;;5051525;28;20204;-68
2022/08/06 04:53:22;;;;;;;14.17;7.57;;;11.30;99.90;;;;;;5051258;28;20169;-68
2022/08/06 04:55:49;;;;;;;13.30;7.80;;;11.20;99.90;;;;;;5051492;28;20254;-68
2022/08/06 04:58:16;;;;;;;12.43;8.03;;;11.30;99.90;;;;;;5051214;28;20644;-68
2022/08/06 05:00:46;;;;;;;17.83;7.80;;;11.30;99.90;;;;;;5051284;28;20165;-68
2022/08/06 05:03:13;;;;;;;12.50;7.83;;;11.40;99.90;;;;;;5051201;28;20169;-68
2022/08/06 05:05:54;;;;;;;12.27;8.20;;;11.50;99.90;;;;;;5051173;28;20674;-67
2022/08/06 05:08:22;;;;;;;9.97;7.40;;;11.50;99.90;;;;;;5051144;28;20542;-69
2022/08/06 05:10:54;;;;;;;12.37;7.50;;;11.50;99.90;;;;;;5051036;28;20201;-67
2022/08/06 05:13:22;;;;;;;14.27;7.77;;;11.60;99.90;;;;;;5050489;28;20181;-67
2022/08/06 05:15:53;;;;;;;11.13;7.60;;;11.70;99.90;;;;;;5050988;28;20165;-67
2022/08/06 05:18:33;;;;;;;10.77;7.33;;;11.70;99.90;;;;;;5050915;28;20245;-68
2022/08/06 05:21:00;;;;;;;14.27;8.00;;;11.70;99.90;;;;;;5050888;28;20683;-67
2022/08/06 05:23:48;;;;;;;9.77;7.40;;;11.80;99.90;;;;;;5050937;28;20177;-67
2022/08/06 05:26:15;;;;;;;12.37;7.57;;;11.70;99.90;;;;;;5050867;28;20180;-68
2022/08/06 05:28:42;;;;;;;13.83;7.47;;;11.60;99.90;;;;;;5050928;28;20169;-68
2022/08/06 05:31:09;;;;;;;11.73;7.67;;;11.50;99.90;;;;;;5050737;28;20776;-67
2022/08/06 05:33:36;;;;;;;11.70;7.43;;;11.50;99.90;;;;;;5050849;28;20173;-67
2022/08/06 05:36:05;;;;;;;10.63;7.53;;;11.40;99.90;;;;;;5050524;28;20161;-67
2022/08/06 05:38:35;;;;;;;11.03;7.07;;;11.50;99.90;;;;;;5050543;28;20216;-67
2022/08/06 05:41:01;;;;;;;10.10;6.67;;;11.40;99.90;;;;;;5050616;28;20205;-68
2022/08/06 05:43:27;;;;;;;11.67;7.40;;;11.40;99.90;;;;;;5049442;28;20207;-67
2022/08/06 05:45:57;;;;;;;10.60;7.27;;;11.40;99.90;;;;;;5050699;28;20170;-68
2022/08/06 05:48:24;;;;;;;11.50;7.63;;;11.40;99.90;;;;;;5050570;28;20173;-68
2022/08/06 05:50:59;;;;;;;13.97;6.90;;;11.40;99.90;;;;;;5050391;28;20248;-68
2022/08/06 05:53:35;;;;;;;12.90;7.90;;;11.40;99.90;;;;;;5050500;28;20164;-67
2022/08/06 05:56:09;;;;;;;14.50;7.77;;;11.40;99.90;;;;;;5050463;28;20206;-67
2022/08/06 05:58:46;;;;;;;13.67;8.37;;;11.50;99.90;;;;;;5049143;28;20230;-67
2022/08/06 06:01:13;;;;;;;12.23;8.17;;;11.60;99.90;;;;;;5049128;28;20536;-67
2022/08/06 06:03:41;;;;;;;13.73;8.00;;;11.80;99.90;;;;;;5050438;28;20169;-68
2022/08/06 06:06:08;;;;;;;14.43;8.43;;;11.90;99.90;;;;;;5050374;28;20219;-67
2022/08/06 06:08:36;;;;;;;11.70;8.00;;;12.00;99.90;;;;;;5050330;28;20180;-67
2022/08/06 06:11:02;;;;;;;11.67;8.07;;;12.10;99.90;;;;;;5050454;28;20262;-67
2022/08/06 06:13:29;;;;;;;10.53;8.03;;;12.20;99.90;;;;;;5050326;28;20185;-67
2022/08/06 06:16:12;;;;;;;9.53;7.47;;;12.20;99.90;;;;;;5050302;28;20205;-67
2022/08/06 06:18:44;;;;;;;15.70;7.83;;;12.30;99.90;;;;;;5050446;28;20355;-68
2022/08/06 06:21:28;;;;;;;11.23;6.67;;;12.30;99.90;;;;;;5050286;28;20170;-68
2022/08/06 06:24:06;;;;;;;10.30;6.57;;;12.30;99.90;;;;;;5050839;28;20248;-68
2022/08/06 06:26:42;;;;;;;12.13;7.30;;;12.30;99.90;;;;;;5054316;28;20200;-68
2022/08/06 06:29:12;;;;;;;12.27;6.77;;;12.30;99.90;;;;;;5052733;28;20172;-67
2022/08/06 06:31:53;;;;;;;11.17;6.50;;;12.40;99.90;;;;;;5054026;28;20189;-67
2022/08/06 06:34:30;;;;;;;10.70;6.73;;;12.50;99.90;;;;;;5053917;28;20196;-66
2022/08/06 06:37:09;;;;;;;10.27;7.47;;;12.60;99.90;;;;;;5053755;28;20247;-66
2022/08/06 06:40:00;;;;;;;10.63;6.70;;;12.60;99.90;;;;;;5054328;28;20561;-67
2022/08/06 06:42:36;;;;;;;14.47;7.83;;;12.70;99.90;;;;;;5053874;28;20628;-66
2022/08/06 06:45:06;;;;;;;11.25;7.15;;;12.80;99.90;;;;;;5052539;28;20204;-67
2022/08/06 06:47:57;;;;;;;11.30;7.70;;;12.90;99.90;;;;;;5053565;28;20184;-66
2022/08/06 06:50:29;;;;;;;11.60;7.63;;;13.00;99.90;;;;;;5053721;28;20209;-67
2022/08/06 06:52:56;;;;;;;10.90;7.33;;;13.90;99.90;;;;;;5053717;28;20169;-66
2022/08/06 06:55:24;;;;;;;12.20;6.97;;;13.20;99.90;;;;;;5053504;28;20177;-67
2022/08/06 06:57:54;;;;;;;14.25;7.22;;;13.30;99.90;;;;;;5053939;28;20169;-67
2022/08/06 07:00:20;;;;;;;11.68;7.10;;;13.40;99.90;;;;;;5053599;28;20177;-68
2022/08/06 07:02:48;;;;;;;11.60;7.13;;;13.60;99.90;;;;;;5053624;28;20523;-67
2022/08/06 07:05:16;;;;;;;13.93;7.00;;;13.70;99.90;;;;;;5053341;28;20170;-67
2022/08/06 07:07:45;;;;;;;10.55;6.95;;;13.80;99.90;;;;;;5053326;28;20180;-68
2022/08/06 07:10:12;;;;;;;12.43;7.22;;;13.90;99.90;;;;;;5053195;28;20706;-68
2022/08/06 07:12:42;;;;;;;10.30;6.90;;;14.00;99.90;;;;;;5053100;28;20173;-66
2022/08/06 07:15:11;;;;;;;15.70;7.15;;;14.00;99.90;;;;;;5053168;28;20176;-67
2022/08/06 07:17:38;;;;;;;10.52;7.22;;;14.20;99.90;;;;;;5053054;28;20292;-67
2022/08/06 07:20:08;;;;;;;16.05;7.85;;;14.20;99.90;;;;;;5053143;28;20256;-67
2022/08/06 07:22:38;;;;;;;12.63;7.68;;;14.30;99.90;;;;;;5053142;28;20196;-66
2022/08/06 07:25:07;;;;;;;12.40;7.07;;;14.40;99.90;;;;;;5053012;28;20170;-67
2022/08/06 07:27:37;;;;;;;14.48;7.32;;;14.60;99.90;;;;;;5052921;28;20177;-66
2022/08/06 07:30:05;;;;;;;12.18;7.13;;;14.70;99.90;;;;;;5052955;28;20232;-67
2022/08/06 07:32:33;;;;;;;13.00;7.35;;;14.80;99.90;;;;;;5052823;28;20644;-66
2022/08/06 07:35:01;;;;;;;12.02;7.63;;;14.90;99.90;;;;;;5052331;28;20268;-67
2022/08/06 07:37:29;;;;;;;13.77;7.75;;;15.00;99.90;;;;;;5052632;28;20675;-67
2022/08/06 07:39:57;;;;;;;12.25;6.88;;;15.20;99.90;;;;;;5052764;28;20169;-67
2022/08/06 07:42:24;;;;;;;13.65;7.00;;;15.30;99.90;;;;;;5052733;28;20173;-67
2022/08/06 07:44:54;;;;;;;11.07;7.47;;;15.40;99.90;;;;;;5052663;28;20172;-67
2022/08/06 07:47:29;;;;;;;14.65;6.93;;;15.50;99.90;;;;;;5052527;28;20247;-67
2022/08/06 07:49:59;;;;;;;11.23;7.13;;;15.50;99.90;;;;;;5052725;28;20205;-67
2022/08/06 07:52:25;;;;;;;14.27;7.30;;;15.70;99.90;;;;;;5052475;28;20165;-67
2022/08/06 07:54:53;;;;;;;10.35;7.47;;;15.80;99.90;;;;;;5052384;28;20174;-67
2022/08/06 07:57:20;;;;;;;13.02;7.38;;;15.80;99.90;;;;;;5052232;28;20162;-66
2022/08/06 07:59:47;;;;;;;13.23;8.02;;;16.00;99.90;;;;;;5052164;28;20195;-67
2022/08/06 08:02:13;;;;;;;14.05;6.80;;;16.10;99.90;;;;;;5052332;28;20223;-66
2022/08/06 08:07:24;;;;;;;12.32;6.85;;;16.30;99.90;;;;;;5052212;28;20269;-66
2022/08/06 08:09:51;;;;;;;13.38;7.40;;;16.50;99.90;;;;;;5052134;28;20324;-67
2022/08/06 08:12:18;;;;;;;12.45;6.90;;;16.50;99.90;;;;;;5052024;28;20188;-67
2022/08/06 08:14:45;;;;;;;13.10;6.95;;;16.60;99.90;;;;;;5051965;28;20620;-66
2022/08/06 08:17:11;;;;;;;12.98;6.45;;;16.70;99.90;;;;;;5034392;28;20231;-66
2022/08/06 08:19:37;;;;;;;11.38;6.57;;;16.80;99.90;;;;;;5051898;28;20539;-66
2022/08/06 08:22:13;;;;;;;10.60;6.05;;;16.90;99.90;;;;;;5051984;28;20166;-66
2022/08/06 08:24:40;;;;;;;12.25;5.80;;;17.00;99.90;;;;;;5051761;28;20272;-65
2022/08/06 08:27:09;;;;;;;15.75;5.70;;;17.30;99.90;;;;;;5051713;28;20705;-65
2022/08/06 08:29:35;;;;;;;13.32;6.30;;;17.50;99.90;;;;;;5051774;28;20287;-65
2022/08/06 08:32:01;;;;;;;9.40;5.60;;;17.60;99.90;;;;;;5051821;28;20260;-65
2022/08/06 08:34:27;;;;;;;11.85;5.30;;;18.40;99.90;;;;;;5051683;28;20176;-65
2022/08/06 08:36:53;;;;;;;9.73;5.00;;;19.70;99.90;;;;;;5051703;28;20244;-66
2022/08/06 08:39:20;;;;;;;14.27;4.97;;;20.40;99.90;;;;;;5052065;28;20554;-66
2022/08/06 08:41:51;;;;;;;11.38;5.13;;;21.50;99.90;;;;;;5050628;28;20205;-66
2022/08/06 08:44:25;;;;;;;12.27;4.63;;;22.30;99.90;;;;;;5051580;28;20331;-66
2022/08/06 08:46:51;;;;;;;9.95;4.78;;;23.30;99.90;;;;;;5050623;28;20669;-66
2022/08/06 08:49:24;;;;;;;10.13;4.18;;;23.60;99.90;;;;;;5051332;28;20166;-66
2022/08/06 08:51:51;;;;;;;7.97;3.90;;;23.90;99.90;;;;;;5051281;28;20226;-66
2022/08/06 08:54:22;;;;;;;7.05;4.10;;;24.20;99.90;;;;;;5051229;28;20208;-67
2022/08/06 08:56:48;;;;;;;7.68;3.88;;;23.90;99.90;;;;;;5051550;28;20268;-67
2022/08/06 08:59:15;;;;;;;5.50;3.97;;;23.90;99.90;;;;;;5051121;28;20176;-67
2022/08/06 09:01:41;;;;;;;8.75;4.45;;;23.10;99.90;;;;;;5051236;28;20184;-67
2022/08/06 09:04:07;;;;;;;8.93;4.57;;;23.60;99.90;;;;;;5051171;28;20227;-67
2022/08/06 09:06:35;;;;;;;8.02;4.47;;;23.60;99.90;;;;;;5051018;28;20169;-67
2022/08/06 09:09:03;;;;;;;7.63;4.80;;;23.50;99.90;;;;;;5051211;28;20177;-67
2022/08/06 09:11:33;;;;;;;10.27;4.32;;;23.50;99.90;;;;;;5050953;28;20216;-67
2022/08/06 09:14:01;;;;;;;8.70;5.15;;;23.30;99.90;;;;;;5051103;28;20177;-67
2022/08/06 09:16:28;;;;;;;10.57;5.30;;;23.20;99.90;;;;;;5050999;28;20259;-68
2022/08/06 09:18:54;;;;;;;9.63;5.00;;;23.00;99.90;;;;;;5051011;28;20168;-67
2022/08/06 09:21:20;;;;;;;9.55;5.07;;;23.00;99.90;;;;;;5050937;28;20162;-66
2022/08/06 09:23:46;;;;;;;6.78;4.43;;;22.70;99.90;;;;;;5050794;28;20181;-67
2022/08/06 09:26:11;;;;;;;10.25;4.60;;;22.20;99.90;;;;;;5050931;28;20174;-67
2022/08/06 09:28:42;;;;;;;6.57;3.60;;;22.60;99.90;;;;;;5050799;28;20249;-67
2022/08/06 09:31:18;;;;;;;5.78;3.40;;;22.90;99.90;;;;;;5050792;28;20287;-66
2022/08/06 09:34:01;;;;;;;8.05;3.80;;;23.10;99.90;;;;;;5050650;28;20161;-66
2022/08/06 09:36:28;;;;;;;8.68;4.03;;;23.60;99.90;;;;;;5050528;28;20204;-67
2022/08/06 09:38:56;;;;;;;7.05;4.07;;;23.80;99.90;;;;;;5050117;28;20227;-66
2022/08/06 09:41:25;;;;;;;9.30;3.85;;;23.50;99.90;;;;;;5050527;28;20713;-66
2022/08/06 09:43:52;;;;;;;7.35;3.80;;;23.80;99.90;;;;;;5049293;28;20177;-65
2022/08/06 09:46:37;;;;;;;9.63;3.92;;;23.70;99.90;;;;;;5050504;28;20807;-65
2022/08/06 09:49:03;;;;;;;7.82;3.38;;;23.70;99.90;;;;;;5050654;28;20563;-65
2022/08/06 09:51:30;;;;;;;7.45;3.65;;;23.60;99.90;;;;;;5050597;28;20212;-66
2022/08/06 09:53:58;;;;;;;7.55;3.85;;;23.70;99.90;;;;;;5050459;28;20215;-66
2022/08/06 09:56:25;;;;;;;8.00;3.50;;;23.10;99.90;;;;;;5050354;28;20214;-65
2022/08/06 09:59:00;;;;;;;5.78;3.20;;;23.50;99.90;;;;;;5052914;28;20157;-66
2022/08/06 10:01:27;;;;;;;8.43;3.90;;;23.80;99.90;;;;;;5054572;28;20181;-65
2022/08/06 10:03:57;;;;;;;10.27;3.55;;;23.90;99.90;;;;;;5054396;28;20252;-65
2022/08/06 10:06:25;;;;;;;8.18;3.60;;;24.50;99.90;;;;;;5054437;28;20223;-65
2022/08/06 10:09:07;;;;;;;9.68;3.40;;;23.90;99.90;;;;;;5054308;28;20563;-65
2022/08/06 10:11:38;;;;;;;6.60;3.28;;;23.50;99.90;;;;;;5054025;28;20242;-65
2022/08/06 10:14:04;;;;;;;7.72;3.22;;;23.20;99.90;;;;;;5054115;28;20230;-65
2022/08/06 10:16:31;;;;;;;5.40;3.42;;;23.80;99.90;;;;;;5054087;28;20172;-66
2022/08/06 10:18:58;;;;;;;11.60;3.90;;;24.70;99.90;;;;;;5054158;28;20203;-66
2022/08/06 10:21:29;;;;;;;6.53;2.78;;;24.70;99.90;;;;;;5054034;28;20169;-66
2022/08/06 10:24:00;;;;;;;7.45;3.13;;;24.90;99.90;;;;;;5054498;28;20169;-66
2022/08/06 10:26:29;;;;;;;5.40;2.60;;;25.50;99.90;;;;;;5054086;28;20169;-65
2022/08/06 10:29:04;;;;;;;4.95;2.72;;;25.90;99.90;;;;;;5054028;28;20189;-66
2022/08/06 10:31:32;;;;;;;4.85;2.67;;;25.60;99.90;;;;;;5053852;28;20735;-66
2022/08/06 10:34:05;;;;;;;6.50;2.55;;;25.30;99.90;;;;;;5053861;28;20165;-65
2022/08/06 10:36:44;;;;;;;6.82;2.70;;;25.10;99.90;;;;;;5052654;28;20173;-66
2022/08/06 10:39:10;;;;;;;7.38;2.17;;;25.90;99.90;;;;;;5053481;28;20613;-66
2022/08/06 10:41:38;;;;;;;7.55;2.45;;;26.20;99.90;;;;;;5053755;28;20260;-66
2022/08/06 10:44:05;;;;;;;13.77;3.03;;;26.90;99.90;;;;;;5053863;28;20223;-66
2022/08/06 10:46:32;;;;;;;9.23;2.95;;;26.90;99.90;;;;;;5053766;28;20197;-66
2022/08/06 10:48:58;;;;;;;7.72;2.63;;;27.20;99.90;;;;;;5053683;28;20603;-65
2022/08/06 10:51:26;;;;;;;7.70;3.17;;;27.30;99.90;;;;;;5053460;28;20209;-65
2022/08/06 10:53:53;;;;;;;6.53;2.88;;;27.50;99.90;;;;;;5053627;28;20524;-64
2022/08/06 10:56:19;;;;;;;4.57;2.80;;;28.10;99.90;;;;;;5053526;28;20196;-66
2022/08/06 10:58:45;;;;;;;4.82;2.60;;;28.20;99.90;;;;;;5053540;28;20636;-64
2022/08/06 11:01:35;;;;;;;8.77;2.85;;;27.90;99.90;;;;;;5053393;28;20181;-66
2022/08/06 11:04:19;;;;;;;8.00;3.10;;;27.50;99.90;;;;;;5053221;28;20199;-65
2022/08/06 11:07:11;;;;;;;7.18;2.83;;;28.30;99.90;;;;;;5053355;28;20640;-64
2022/08/06 11:10:10;;;;;;;5.72;2.90;;;28.90;99.90;;;;;;5052371;28;20205;-66
2022/08/06 11:12:54;;;;;;;4.47;2.40;;;28.80;99.90;;;;;;5053197;28;20177;-65
2022/08/06 11:15:20;;;;;;;5.97;2.63;;;28.60;99.90;;;;;;5053462;28;20735;-66
2022/08/06 11:17:52;;;;;;;5.03;2.60;;;29.30;99.90;;;;;;5052907;28;20204;-66
2022/08/06 11:20:33;;;;;;;6.18;2.13;;;29.40;99.90;;;;;;5053089;28;20727;-66
2022/08/06 11:23:07;;;;;;;4.30;2.00;;;29.20;99.90;;;;;;5051740;28;20181;-66
2022/08/06 11:25:38;;;;;;;4.18;1.95;;;29.40;99.90;;;;;;5052984;28;20172;-66
2022/08/06 11:28:04;;;;;;;6.40;2.15;;;29.70;99.90;;;;;;5051690;28;20185;-65
2022/08/06 11:30:39;;;;;;;4.97;2.38;;;30.20;99.90;;;;;;5052968;28;20303;-68
2022/08/06 11:33:05;;;;;;;3.65;1.75;;;31.00;99.90;;;;;;5051546;28;20173;-66
2022/08/06 11:35:34;;;;;;;3.40;1.83;;;30.80;99.90;;;;;;5052811;28;20183;-65
2022/08/06 11:38:05;;;;;;;4.43;2.05;;;31.20;99.90;;;;;;5052587;28;20208;-66
2022/08/06 11:40:57;;;;;;;4.78;1.88;;;31.20;99.90;;;;;;5052616;28;20173;-65
2022/08/06 11:43:46;;;;;;;4.68;2.10;;;31.00;99.90;;;;;;5052566;28;20207;-65
2022/08/06 11:46:25;;;;;;;4.53;2.08;;;28.40;99.90;;;;;;5052518;28;20226;-65
2022/08/06 11:49:02;;;;;;;3.55;1.95;;;28.60;99.90;;;;;;5052588;28;20255;-66
2022/08/06 11:51:42;;;;;;;5.25;2.28;;;30.20;99.90;;;;;;5052416;28;20216;-66
2022/08/06 11:54:18;;;;;;;3.80;2.45;;;30.60;99.90;;;;;;5052545;28;20176;-65
2022/08/06 11:57:07;;;;;;;7.10;2.70;;;29.90;99.90;;;;;;5052461;28;20175;-66
2022/08/06 11:59:43;;;;;;;4.25;2.20;;;30.60;99.90;;;;;;5049329;28;20208;-66
2022/08/06 12:02:11;;;;;;;5.10;2.42;;;31.00;99.90;;;;;;5052344;28;20565;-65
2022/08/06 12:04:42;;;;;;;4.20;2.45;;;31.60;99.90;;;;;;5052248;28;20249;-66
2022/08/06 12:07:21;;;;;;;7.95;2.50;;;31.50;99.90;;;;;;5052418;28;20173;-65
2022/08/06 12:10:02;;;;;;;4.35;2.50;;;31.70;99.90;;;;;;5051929;28;20207;-65
2022/08/06 12:12:37;;;;;;;6.40;2.72;;;31.60;99.90;;;;;;5052069;28;20472;-66
2022/08/06 12:15:12;;;;;;;8.75;2.58;;;32.00;99.90;;;;;;5052068;28;20186;-66
2022/08/06 12:17:53;;;;;;;5.20;2.60;;;31.30;99.90;;;;;;5051884;28;20199;-65
2022/08/06 12:20:35;;;;;;;5.00;2.35;;;30.20;99.90;;;;;;5051867;28;20708;-65
2022/08/06 12:23:12;;;;;;;7.45;2.70;;;30.80;99.90;;;;;;5051925;28;20188;-65
2022/08/06 12:25:42;;;;;;;4.95;2.28;;;30.30;99.90;;;;;;5051756;28;20160;-65
2022/08/06 12:28:11;;;;;;;6.65;2.50;;;30.20;99.90;;;;;;5051969;28;20331;-65
2022/08/06 12:30:52;;;;;;;5.30;2.08;;;30.80;99.90;;;;;;5051687;28;20235;-66
2022/08/06 12:33:19;;;;;;;5.78;2.30;;;31.00;99.90;;;;;;5051876;28;20164;-66
2022/08/06 12:35:52;;;;;;;4.43;2.38;;;30.90;99.90;;;;;;5050343;28;20646;-65
2022/08/06 12:38:19;;;;;;;8.35;2.50;;;30.90;99.90;;;;;;5051524;28;20307;-65
2022/08/06 12:41:04;;;;;;;5.38;2.40;;;30.00;99.90;;;;;;5050333;28;20180;-65
2022/08/06 12:43:31;;;;;;;6.13;2.50;;;30.20;99.90;;;;;;5051454;28;20176;-66
2022/08/06 12:46:02;;;;;;;9.15;2.30;;;30.50;99.90;;;;;;5051688;28;20169;-65
2022/08/06 12:48:27;;;;;;;3.00;2.03;;;30.90;99.90;;;;;;5051563;28;20259;-65
2022/08/06 12:51:19;;;;;;;6.15;2.38;;;30.30;99.90;;;;;;5051293;28;20292;-65
2022/08/06 12:53:51;;;;;;;8.82;2.50;;;30.60;99.90;;;;;;5050165;28;20260;-65
2022/08/06 12:56:18;;;;;;;5.75;2.30;;;31.60;99.90;;;;;;5051264;28;20184;-65
2022/08/06 12:58:45;;;;;;;8.23;2.30;;;30.80;99.90;;;;;;5051452;28;20169;-66
2022/08/06 13:01:13;;;;;;;5.15;2.63;;;30.80;99.90;;;;;;5051064;28;20247;-65
2022/08/06 13:03:43;;;;;;;5.75;2.60;;;31.20;99.90;;;;;;5049826;28;20191;-65